createdAt,value
2022-12-18T00:02:04.829Z,137.77
2022-12-18T00:04:34.619Z,115.13
2022-12-18T00:07:02.107Z,203.98
2022-12-18T00:09:39.736Z,169.98
2022-12-18T00:14:43.656Z,104.43
2022-12-18T00:17:10.798Z,122.90
2022-12-18T00:19:38.208Z,104.10
2022-12-18T00:22:06.355Z,143.95
2022-12-18T00:24:39.831Z,104.78
2022-12-18T00:27:07.308Z,111.55
2022-12-18T00:29:34.770Z,83.40
2022-12-18T00:32:02.237Z,96.45
2022-12-18T00:34:29.543Z,89.18
2022-12-18T00:36:57.139Z,183.95
2022-12-18T00:39:24.580Z,110.88
2022-12-18T00:42:10.657Z,91.47
2022-12-18T00:44:37.809Z,86.88
2022-12-18T00:47:05.378Z,268.65
2022-12-18T00:49:32.957Z,92.30
2022-12-18T00:52:00.421Z,101.80
2022-12-18T00:54:28.891Z,211.55
2022-12-18T00:56:57.312Z,245.43
2022-12-18T00:59:24.789Z,90.60
2022-12-18T01:01:52.443Z,90.53
2022-12-18T01:04:19.553Z,87.50
2022-12-18T01:06:47.261Z,82.68
2022-12-18T01:09:14.711Z,84.25
2022-12-18T01:11:42.089Z,82.25
2022-12-18T01:14:09.683Z,89.32
2022-12-18T01:16:37.003Z,84.10
2022-12-18T01:19:04.392Z,84.10
2022-12-18T01:21:31.922Z,99.10
2022-12-18T01:23:59.362Z,85.47
2022-12-18T01:26:28.660Z,101.25
2022-12-18T01:28:57.591Z,101.20
2022-12-18T01:31:32.377Z,99.40
2022-12-18T01:34:02.885Z,82.65
2022-12-18T01:36:33.458Z,90.63
2022-12-18T01:39:03.117Z,96.40
2022-12-18T01:41:52.209Z,97.75
2022-12-18T01:44:54.478Z,89.38
2022-12-18T01:47:48.978Z,90.43
2022-12-18T01:50:19.023Z,87.28
2022-12-18T01:52:55.327Z,98.55
2022-12-18T01:55:29.188Z,86.07
2022-12-18T01:57:59.237Z,87.68
2022-12-18T02:00:28.058Z,87.68
2022-12-18T02:02:56.979Z,89.22
2022-12-18T02:05:42.517Z,88.97
2022-12-18T02:08:33.037Z,90.40
2022-12-18T02:11:24.125Z,83.22
2022-12-18T02:14:06.542Z,83.80
2022-12-18T02:16:56.630Z,82.28
2022-12-18T02:19:45.812Z,96.43
2022-12-18T02:22:22.599Z,89.88
2022-12-18T02:25:10.907Z,93.45
2022-12-18T02:27:41.896Z,93.68
2022-12-18T02:30:09.867Z,86.82
2022-12-18T02:32:42.382Z,82.32
2022-12-18T02:35:15.063Z,91.43
2022-12-18T02:37:45.618Z,95.80
2022-12-18T02:40:15.486Z,86.00
2022-12-18T02:42:43.065Z,88.78
2022-12-18T02:45:11.005Z,83.25
2022-12-18T02:47:41.843Z,84.80
2022-12-18T02:50:28.418Z,83.53
2022-12-18T02:53:23.487Z,77.30
2022-12-18T02:56:16.314Z,81.03
2022-12-18T02:59:08.518Z,83.28
2022-12-18T03:02:00.819Z,81.72
2022-12-18T03:04:34.038Z,89.22
2022-12-18T03:07:06.498Z,90.07
2022-12-18T03:09:41.223Z,91.22
2022-12-18T03:12:38.099Z,77.78
2022-12-18T03:15:20.849Z,84.53
2022-12-18T03:17:58.136Z,83.28
2022-12-18T03:20:28.848Z,76.25
2022-12-18T03:23:03.750Z,83.68
2022-12-18T03:25:32.859Z,87.85
2022-12-18T03:28:02.824Z,87.55
2022-12-18T03:30:32.626Z,83.85
2022-12-18T03:33:14.728Z,86.60
2022-12-18T03:35:44.497Z,85.60
2022-12-18T03:38:12.323Z,78.82
2022-12-18T03:41:04.141Z,86.63
2022-12-18T03:43:49.531Z,77.35
2022-12-18T03:46:32.082Z,83.75
2022-12-18T03:49:16.350Z,86.43
2022-12-18T03:52:10.455Z,79.63
2022-12-18T03:54:39.720Z,85.88
2022-12-18T03:57:14.119Z,77.50
2022-12-18T03:59:42.987Z,78.03
2022-12-18T04:02:10.841Z,88.18
2022-12-18T04:04:40.939Z,77.78
2022-12-18T04:07:09.038Z,75.88
2022-12-18T04:09:39.776Z,78.30
2022-12-18T04:12:07.685Z,72.90
2022-12-18T04:14:36.830Z,71.95
2022-12-18T04:17:04.807Z,76.72
2022-12-18T04:19:32.033Z,74.40
2022-12-18T04:22:00.418Z,72.78
2022-12-18T04:24:28.211Z,75.15
2022-12-18T04:26:55.519Z,76.53
2022-12-18T04:29:29.521Z,79.97
2022-12-18T04:31:56.977Z,79.68
2022-12-18T04:34:24.405Z,76.05
2022-12-18T04:36:52.330Z,74.35
2022-12-18T04:39:19.947Z,77.85
2022-12-18T04:41:47.307Z,76.32
2022-12-18T04:44:15.242Z,79.07
2022-12-18T04:46:42.804Z,83.28
2022-12-18T04:49:12.272Z,80.00
2022-12-18T04:51:40.207Z,72.57
2022-12-18T04:54:07.711Z,74.28
2022-12-18T04:56:35.162Z,81.53
2022-12-18T04:59:02.619Z,72.60
2022-12-18T05:01:34.486Z,72.22
2022-12-18T05:04:03.190Z,72.55
2022-12-18T05:06:30.718Z,73.15
2022-12-18T05:08:59.182Z,75.07
2022-12-18T05:11:26.741Z,70.88
2022-12-18T05:13:55.187Z,73.40
2022-12-18T05:16:23.624Z,70.80
2022-12-18T05:18:52.075Z,78.60
2022-12-18T05:21:19.542Z,79.65
2022-12-18T05:23:47.572Z,70.88
2022-12-18T05:26:19.827Z,73.28
2022-12-18T05:28:48.088Z,60.78
2022-12-18T05:31:15.773Z,76.38
2022-12-18T05:33:43.317Z,77.82
2022-12-18T05:36:12.636Z,74.20
2022-12-18T05:38:40.851Z,72.63
2022-12-18T05:41:08.780Z,73.80
2022-12-18T05:43:38.052Z,77.20
2022-12-18T05:46:07.277Z,76.82
2022-12-18T05:48:35.467Z,75.53
2022-12-18T05:51:10.876Z,71.38
2022-12-18T05:53:39.019Z,71.30
2022-12-18T05:56:10.059Z,69.75
2022-12-18T05:58:39.018Z,76.43
2022-12-18T06:01:19.394Z,71.28
2022-12-18T06:03:46.920Z,72.63
2022-12-18T06:06:16.929Z,72.00
2022-12-18T06:08:46.693Z,72.40
2022-12-18T06:11:18.728Z,68.20
2022-12-18T06:13:48.187Z,68.88
2022-12-18T06:16:15.287Z,66.57
2022-12-18T06:18:42.762Z,69.93
2022-12-18T06:21:10.902Z,67.57
2022-12-18T06:23:38.510Z,71.00
2022-12-18T06:26:14.820Z,66.40
2022-12-18T06:28:42.624Z,66.13
2022-12-18T06:31:10.431Z,66.70
2022-12-18T06:33:43.580Z,68.90
2022-12-18T06:36:13.208Z,65.15
2022-12-18T06:38:43.203Z,72.05
2022-12-18T06:41:20.218Z,67.15
2022-12-18T06:43:47.638Z,64.57
2022-12-18T06:46:15.375Z,75.72
2022-12-18T06:48:42.761Z,73.57
2022-12-18T06:51:09.934Z,74.15
2022-12-18T06:53:38.127Z,68.10
2022-12-18T06:56:10.141Z,63.03
2022-12-18T06:58:38.962Z,63.72
2022-12-18T07:01:09.257Z,63.17
2022-12-18T07:03:37.363Z,64.07
2022-12-18T07:06:06.141Z,65.93
2022-12-18T07:08:34.029Z,64.65
2022-12-18T07:11:04.794Z,67.78
2022-12-18T07:13:33.165Z,66.03
2022-12-18T07:16:24.674Z,66.93
2022-12-18T07:18:57.018Z,61.70
2022-12-18T07:21:26.440Z,69.55
2022-12-18T07:23:53.601Z,67.88
2022-12-18T07:26:23.179Z,69.38
2022-12-18T07:28:52.099Z,62.85
2022-12-18T07:31:22.224Z,66.68
2022-12-18T07:33:50.437Z,133.63
2022-12-18T07:36:19.787Z,63.80
2022-12-18T07:38:49.521Z,59.08
2022-12-18T07:41:19.877Z,64.93
2022-12-18T07:43:47.179Z,65.25
2022-12-18T07:46:17.015Z,61.17
2022-12-18T07:48:49.566Z,62.53
2022-12-18T07:51:18.992Z,66.13
2022-12-18T07:53:48.333Z,63.88
2022-12-18T07:56:27.603Z,64.50
2022-12-18T07:58:55.417Z,63.25
2022-12-18T08:01:23.129Z,61.35
2022-12-18T08:03:52.457Z,68.22
2022-12-18T08:06:22.376Z,66.63
2022-12-18T08:08:53.396Z,65.10
2022-12-18T08:11:21.475Z,66.97
2022-12-18T08:13:48.836Z,69.25
2022-12-18T08:16:18.795Z,63.20
2022-12-18T08:18:47.021Z,70.43
2022-12-18T08:21:26.054Z,68.25
2022-12-18T08:23:55.365Z,66.40
2022-12-18T08:26:23.547Z,66.50
2022-12-18T08:28:55.564Z,72.22
2022-12-18T08:31:24.104Z,55.42
2022-12-18T08:33:53.992Z,67.70
2022-12-18T08:36:23.449Z,68.10
2022-12-18T08:38:53.742Z,75.18
2022-12-18T08:41:22.136Z,71.40
2022-12-18T08:44:07.685Z,79.15
2022-12-18T08:46:40.187Z,80.80
2022-12-18T08:49:09.347Z,81.03
2022-12-18T08:51:37.370Z,82.30
2022-12-18T08:54:06.590Z,78.75
2022-12-18T08:56:35.989Z,82.35
2022-12-18T08:59:03.126Z,77.32
2022-12-18T09:01:30.493Z,69.47
2022-12-18T09:03:58.540Z,76.68
2022-12-18T09:06:25.830Z,78.93
2022-12-18T09:08:53.283Z,79.15
2022-12-18T09:11:24.601Z,74.82
2022-12-18T09:13:53.701Z,89.88
2022-12-18T09:16:21.378Z,95.68
2022-12-18T09:18:49.440Z,96.53
2022-12-18T09:21:22.442Z,95.35
2022-12-18T09:23:54.323Z,86.53
2022-12-18T09:26:23.012Z,91.05
2022-12-18T09:28:50.651Z,92.50
2022-12-18T09:31:22.182Z,102.10
2022-12-18T09:33:49.323Z,103.97
2022-12-18T09:36:19.075Z,105.45
2022-12-18T09:38:46.518Z,109.65
2022-12-18T09:41:35.654Z,103.60
2022-12-18T09:44:19.197Z,105.18
2022-12-18T09:46:59.711Z,103.50
2022-12-18T09:49:32.051Z,103.80
2022-12-18T09:52:31.638Z,103.65
2022-12-18T09:55:05.767Z,110.90
2022-12-18T09:57:36.999Z,110.55
2022-12-18T10:00:16.951Z,108.95
2022-12-18T10:02:44.282Z,108.55
2022-12-18T10:05:37.573Z,114.10
2022-12-18T10:08:18.127Z,110.88
2022-12-18T10:10:51.531Z,110.70
2022-12-18T10:13:18.837Z,87.20
2022-12-18T10:15:55.293Z,103.35
2022-12-18T10:18:31.339Z,107.75
2022-12-18T10:21:11.765Z,89.78
2022-12-18T10:24:03.398Z,97.20
2022-12-18T10:26:33.171Z,102.38
2022-12-18T10:29:05.461Z,111.13
2022-12-18T10:31:33.227Z,113.90
2022-12-18T10:34:00.489Z,108.88
2022-12-18T10:36:30.257Z,106.90
2022-12-18T10:39:16.631Z,108.85
2022-12-18T10:41:43.982Z,100.05
2022-12-18T10:44:23.037Z,106.38
2022-12-18T10:47:10.209Z,99.93
2022-12-18T10:49:49.340Z,97.85
2022-12-18T10:52:27.301Z,100.10
2022-12-18T10:55:03.102Z,106.72
2022-12-18T10:57:32.464Z,97.07
2022-12-18T11:00:01.660Z,94.38
2022-12-18T11:02:34.583Z,95.03
2022-12-18T11:07:51.449Z,90.20
2022-12-18T11:10:20.706Z,85.15
2022-12-18T11:12:48.618Z,92.43
2022-12-18T11:15:29.079Z,91.20
2022-12-18T11:17:56.473Z,86.35
2022-12-18T11:20:34.047Z,77.50
2022-12-18T11:23:04.468Z,71.30
2022-12-18T11:25:35.397Z,74.45
2022-12-18T11:28:39.134Z,73.35
2022-12-18T11:31:29.368Z,72.75
2022-12-18T11:34:29.103Z,66.25
2022-12-18T11:37:01.043Z,75.28
2022-12-18T11:39:50.597Z,67.43
2022-12-18T11:42:35.828Z,73.80
2022-12-18T11:45:26.033Z,67.22
2022-12-18T11:48:06.940Z,72.90
2022-12-18T11:50:53.079Z,70.93
2022-12-18T11:53:21.485Z,79.63
2022-12-18T11:55:55.168Z,76.30
2022-12-18T11:58:57.108Z,78.93
2022-12-18T12:01:46.070Z,69.88
2022-12-18T12:04:29.220Z,69.82
2022-12-18T12:07:11.544Z,76.18
2022-12-18T12:09:54.225Z,60.05
2022-12-18T12:12:50.526Z,70.85
2022-12-18T12:15:56.014Z,73.18
2022-12-18T12:19:08.373Z,73.60
2022-12-18T12:21:47.092Z,71.93
2022-12-18T12:24:37.236Z,66.03
2022-12-18T12:27:31.172Z,74.55
2022-12-18T12:30:44.147Z,78.53
2022-12-18T12:33:30.276Z,75.80
2022-12-18T12:36:09.259Z,72.18
2022-12-18T12:38:51.716Z,77.93
2022-12-18T12:41:43.798Z,71.65
2022-12-18T12:44:20.462Z,79.22
2022-12-18T12:46:49.641Z,75.18
2022-12-18T12:49:21.765Z,73.78
2022-12-18T12:54:40.565Z,70.90
2022-12-18T12:57:34.925Z,73.38
2022-12-18T13:00:11.706Z,71.07
2022-12-18T13:02:48.902Z,70.03
2022-12-18T13:05:42.578Z,73.18
2022-12-18T13:08:12.270Z,75.68
2022-12-18T13:10:44.113Z,80.55
2022-12-18T13:13:23.320Z,83.97
2022-12-18T13:16:07.071Z,75.88
2022-12-18T13:18:35.953Z,78.35
2022-12-18T13:21:17.644Z,75.47
2022-12-18T13:23:51.061Z,88.55
2022-12-18T13:26:21.938Z,80.57
2022-12-18T13:28:55.700Z,88.82
2022-12-18T13:31:41.162Z,88.78
2022-12-18T13:34:26.881Z,88.38
2022-12-18T13:36:57.521Z,87.13
2022-12-18T13:42:49.294Z,90.43
2022-12-18T13:45:41.851Z,84.03
2022-12-18T13:48:22.011Z,100.97
2022-12-18T13:51:04.703Z,88.88
2022-12-18T13:53:37.804Z,96.78
2022-12-18T13:56:06.680Z,105.45
2022-12-18T13:58:34.741Z,121.57
2022-12-18T14:01:04.312Z,108.40
2022-12-18T14:03:32.014Z,92.88
2022-12-18T14:06:10.210Z,95.10
2022-12-18T14:08:41.926Z,99.97
2022-12-18T14:11:23.567Z,97.85
2022-12-18T14:13:54.104Z,112.65
2022-12-18T14:16:21.454Z,114.18
2022-12-18T14:19:04.552Z,115.07
2022-12-18T14:24:22.963Z,121.68
2022-12-18T14:26:51.652Z,113.97
2022-12-18T14:29:26.745Z,114.53
2022-12-18T14:32:14.955Z,113.35
2022-12-18T14:34:58.403Z,119.38
2022-12-18T14:37:28.375Z,126.20
2022-12-18T14:40:11.328Z,118.50
2022-12-18T14:45:41.486Z,152.63
2022-12-18T14:48:43.202Z,151.43
2022-12-18T14:51:26.205Z,202.75
2022-12-18T14:54:21.731Z,149.65
2022-12-18T14:57:01.616Z,111.35
2022-12-18T14:59:32.003Z,107.90
2022-12-18T15:02:10.414Z,101.60
2022-12-18T15:04:44.531Z,100.63
2022-12-18T15:07:12.310Z,101.28
2022-12-18T15:09:44.331Z,106.60
2022-12-18T15:12:39.521Z,105.97
2022-12-18T15:15:27.929Z,109.15
2022-12-18T15:18:01.971Z,110.07
2022-12-18T15:20:34.836Z,116.93
2022-12-18T15:25:38.751Z,129.75
2022-12-18T15:28:21.497Z,132.20
2022-12-18T15:31:23.377Z,137.93
2022-12-18T15:33:54.571Z,139.88
2022-12-18T15:36:26.474Z,143.43
2022-12-18T15:39:05.358Z,169.73
2022-12-18T15:41:38.061Z,175.40
2022-12-18T15:44:27.640Z,180.40
2022-12-18T15:46:56.079Z,184.85
2022-12-18T15:49:25.663Z,166.50
2022-12-18T15:52:01.188Z,151.50
2022-12-18T15:54:47.725Z,139.93
2022-12-18T15:57:25.036Z,144.60
2022-12-18T16:00:01.066Z,138.75
2022-12-18T16:02:30.446Z,151.95
2022-12-18T16:05:06.692Z,129.48
2022-12-18T16:07:36.127Z,128.80
2022-12-18T16:10:04.595Z,127.05
2022-12-18T16:12:33.327Z,140.45
2022-12-18T16:15:03.666Z,146.70
2022-12-18T16:17:40.809Z,141.20
2022-12-18T16:20:17.800Z,147.63
2022-12-18T16:22:48.166Z,154.68
2022-12-18T16:25:27.444Z,151.50
2022-12-18T16:27:58.545Z,155.98
2022-12-18T16:30:38.155Z,164.10
2022-12-18T16:33:07.830Z,167.75
2022-12-18T16:35:38.981Z,180.70
2022-12-18T16:38:07.663Z,177.40
2022-12-18T16:40:56.107Z,166.70
2022-12-18T16:43:27.157Z,155.80
2022-12-18T16:45:58.576Z,185.20
2022-12-18T16:48:27.572Z,178.70
2022-12-18T16:51:07.195Z,168.30
2022-12-18T16:53:35.784Z,153.10
2022-12-18T16:56:04.840Z,154.55
2022-12-18T16:58:34.396Z,152.35
2022-12-18T17:01:02.575Z,152.82
2022-12-18T17:03:30.176Z,157.88
2022-12-18T17:06:04.736Z,154.55
2022-12-18T17:08:33.785Z,185.52
2022-12-18T17:11:11.757Z,166.70
2022-12-18T17:13:40.260Z,164.70
2022-12-18T17:16:09.710Z,154.57
2022-12-18T17:18:39.268Z,155.32
2022-12-18T17:21:12.022Z,165.95
2022-12-18T17:26:11.288Z,163.15
2022-12-18T17:28:44.442Z,176.35
2022-12-18T17:31:15.336Z,169.93
2022-12-18T17:33:44.640Z,165.00
2022-12-18T17:36:13.234Z,178.07
2022-12-18T17:38:44.974Z,182.43
2022-12-18T17:41:13.437Z,181.52
2022-12-18T17:44:08.499Z,173.25
2022-12-18T17:46:36.763Z,166.50
2022-12-18T17:49:05.767Z,183.40
2022-12-18T17:51:34.751Z,207.77
2022-12-18T17:54:03.560Z,201.77
2022-12-18T17:56:31.335Z,185.57
2022-12-18T17:59:00.742Z,185.48
2022-12-18T18:01:29.355Z,202.10
2022-12-18T18:03:57.613Z,205.23
2022-12-18T18:06:26.291Z,196.88
2022-12-18T18:08:56.081Z,224.65
2022-12-18T18:11:43.676Z,209.27
2022-12-18T18:14:19.011Z,207.90
2022-12-18T18:16:52.850Z,210.07
2022-12-18T18:19:26.228Z,200.23
2022-12-18T18:21:54.888Z,188.10
2022-12-18T18:24:25.241Z,182.90
2022-12-18T18:26:53.618Z,209.90
2022-12-18T18:29:26.224Z,207.00
2022-12-18T18:31:57.887Z,190.55
2022-12-18T18:34:28.948Z,199.57
2022-12-18T18:36:58.010Z,188.93
2022-12-18T18:39:26.308Z,195.68
2022-12-18T18:41:54.642Z,191.95
2022-12-18T18:44:26.695Z,186.82
2022-12-18T18:47:02.347Z,196.60
2022-12-18T18:49:33.933Z,191.13
2022-12-18T18:52:03.563Z,191.07
2022-12-18T18:54:31.903Z,190.80
2022-12-18T18:57:20.028Z,194.88
2022-12-18T18:59:49.478Z,200.20
2022-12-18T19:02:18.732Z,199.25
2022-12-18T19:04:48.992Z,200.07
2022-12-18T19:07:29.381Z,200.52
2022-12-18T19:10:04.248Z,197.90
2022-12-18T19:12:53.582Z,199.55
2022-12-18T19:15:22.377Z,211.57
2022-12-18T19:17:51.110Z,204.48
2022-12-18T19:20:21.343Z,217.60
2022-12-18T19:22:55.787Z,209.90
2022-12-18T19:25:38.316Z,207.63
2022-12-18T19:28:22.288Z,206.30
2022-12-18T19:30:58.630Z,216.95
2022-12-18T19:33:45.378Z,213.55
2022-12-18T19:36:20.957Z,208.95
2022-12-18T19:38:50.793Z,217.45
2022-12-18T19:41:20.318Z,213.68
2022-12-18T19:43:48.788Z,222.60
2022-12-18T19:46:19.615Z,213.73
2022-12-18T19:48:49.966Z,211.05
2022-12-18T19:51:23.346Z,222.52
2022-12-18T19:53:56.647Z,212.25
2022-12-18T19:56:28.774Z,216.23
2022-12-18T19:58:58.624Z,201.23
2022-12-18T20:01:30.345Z,208.45
2022-12-18T20:03:59.650Z,203.20
2022-12-18T20:06:35.069Z,205.20
2022-12-18T20:09:07.665Z,202.90
2022-12-18T20:11:41.503Z,188.65
2022-12-18T20:14:18.859Z,198.68
2022-12-18T20:16:53.563Z,182.18
2022-12-18T20:19:23.068Z,190.55
2022-12-18T20:21:51.567Z,187.85
2022-12-18T20:24:20.597Z,188.90
2022-12-18T20:26:51.714Z,178.65
2022-12-18T20:29:20.051Z,192.10
2022-12-18T20:31:50.656Z,192.25
2022-12-18T20:34:19.487Z,189.55
2022-12-18T20:36:52.333Z,232.80
2022-12-18T20:39:20.321Z,201.70
2022-12-18T20:41:48.611Z,193.13
2022-12-18T20:44:23.271Z,197.73
2022-12-18T20:47:08.602Z,182.25
2022-12-18T20:49:37.568Z,216.48
2022-12-18T20:52:10.516Z,264.85
2022-12-18T20:54:39.439Z,288.08
2022-12-18T20:57:07.603Z,304.17
2022-12-18T20:59:35.599Z,308.92
2022-12-18T21:02:05.514Z,342.10
2022-12-18T21:04:33.324Z,312.45
2022-12-18T21:07:02.963Z,386.65
2022-12-18T21:09:37.793Z,365.05
2022-12-18T21:12:29.620Z,377.80
2022-12-18T21:15:04.261Z,369.48
2022-12-18T21:17:34.542Z,371.20
2022-12-18T21:20:14.072Z,359.25
2022-12-18T21:22:45.176Z,323.65
2022-12-18T21:25:12.550Z,336.13
2022-12-18T21:27:40.058Z,347.10
2022-12-18T21:30:09.039Z,303.73
2022-12-18T21:32:37.683Z,358.33
2022-12-18T21:35:06.284Z,342.65
2022-12-18T21:37:33.432Z,350.90
2022-12-18T21:40:00.832Z,255.18
2022-12-18T21:42:47.604Z,336.90
2022-12-18T21:45:16.362Z,335.30
2022-12-18T21:47:43.754Z,306.35
2022-12-18T21:50:11.191Z,325.38
2022-12-18T21:52:39.706Z,278.58
2022-12-18T21:55:10.248Z,274.10
2022-12-18T21:57:45.805Z,258.60
2022-12-18T22:00:18.564Z,238.93
2022-12-18T22:02:47.852Z,269.85
2022-12-18T22:05:15.252Z,264.75
2022-12-18T22:07:42.868Z,270.70
2022-12-18T22:10:11.286Z,273.15
2022-12-18T22:12:44.147Z,252.73
2022-12-18T22:15:21.320Z,268.30
2022-12-18T22:17:50.672Z,277.17
2022-12-18T22:20:20.371Z,290.95
2022-12-18T22:22:48.977Z,269.73
2022-12-18T22:25:16.631Z,275.02
2022-12-18T22:28:04.688Z,283.20
2022-12-18T22:30:32.988Z,260.20
2022-12-18T22:33:00.387Z,276.90
2022-12-18T22:35:27.958Z,280.15
2022-12-18T22:37:55.516Z,246.65
2022-12-18T22:40:27.309Z,279.70
2022-12-18T22:42:57.045Z,273.23
2022-12-18T22:45:26.200Z,274.98
2022-12-18T22:47:53.921Z,256.15
2022-12-18T22:50:21.409Z,284.48
2022-12-18T22:52:49.926Z,235.02
2022-12-18T22:55:17.410Z,290.65
2022-12-18T22:57:48.932Z,263.35
2022-12-18T23:00:24.368Z,274.73
2022-12-18T23:02:59.214Z,283.98
2022-12-18T23:05:31.643Z,282.10
2022-12-18T23:07:59.804Z,257.75
2022-12-18T23:10:28.492Z,269.90
2022-12-18T23:12:56.241Z,270.48
2022-12-18T23:15:28.459Z,267.00
2022-12-18T23:17:57.991Z,271.50
2022-12-18T23:20:28.514Z,265.40
2022-12-18T23:23:01.908Z,262.05
2022-12-18T23:25:29.144Z,239.63
2022-12-18T23:27:56.700Z,208.68
2022-12-18T23:30:30.507Z,264.95
2022-12-18T23:33:00.739Z,271.98
2022-12-18T23:35:30.130Z,265.65
2022-12-18T23:37:59.465Z,256.50
2022-12-18T23:40:27.635Z,280.05
2022-12-18T23:42:54.748Z,264.40
2022-12-18T23:45:28.165Z,261.60
2022-12-18T23:47:55.222Z,272.15
2022-12-18T23:50:29.116Z,262.38
2022-12-18T23:53:04.901Z,244.57
2022-12-18T23:55:37.649Z,266.65
2022-12-18T23:58:05.087Z,265.13
